sensor_id;sensor_type;location;lat;lon;timestamp;pressure;altitude;pressure_sealevel;temperature;humidity
31595;BME280;18200;48.726;8.892;2023-02-16T00:00:34;97752.94;;;11.57;40.53
31595;BME280;18200;48.726;8.892;2023-02-16T00:04:34;97744.53;;;11.83;39.78
31595;BME280;18200;48.726;8.892;2023-02-16T00:08:36;97756.44;;;11.58;40.90
31595;BME280;18200;48.726;8.892;2023-02-16T00:12:36;97751.59;;;11.76;40.65
31595;BME280;18200;48.726;8.892;2023-02-16T00:16:57;97757.97;;;11.95;40.48
31595;BME280;18200;48.726;8.892;2023-02-16T00:20:58;97755.72;;;11.97;40.56
31595;BME280;18200;48.726;8.892;2023-02-16T00:24:58;97752.00;;;12.14;40.38
31595;BME280;18200;48.726;8.892;2023-02-16T00:28:59;97748.97;;;12.03;40.13
31595;BME280;18200;48.726;8.892;2023-02-16T00:33:00;97748.41;;;12.22;40.33
31595;BME280;18200;48.726;8.892;2023-02-16T00:37:08;97758.44;;;11.61;40.28
31595;BME280;18200;48.726;8.892;2023-02-16T00:41:17;97755.97;;;11.56;40.47
31595;BME280;18200;48.726;8.892;2023-02-16T00:45:37;97749.69;;;11.28;40.97
31595;BME280;18200;48.726;8.892;2023-02-16T00:49:38;97747.69;;;11.37;40.43
31595;BME280;18200;48.726;8.892;2023-02-16T00:53:38;97752.59;;;11.47;41.23
31595;BME280;18200;48.726;8.892;2023-02-16T00:57:42;97746.13;;;11.60;40.72
31595;BME280;18200;48.726;8.892;2023-02-16T01:01:43;97747.22;;;11.47;40.82
31595;BME280;18200;48.726;8.892;2023-02-16T01:05:44;97750.94;;;11.42;40.48
31595;BME280;18200;48.726;8.892;2023-02-16T01:09:45;97755.72;;;11.25;41.73
31595;BME280;18200;48.726;8.892;2023-02-16T01:14:04;97761.34;;;11.32;40.97
31595;BME280;18200;48.726;8.892;2023-02-16T01:18:06;97767.28;;;10.80;40.79
31595;BME280;18200;48.726;8.892;2023-02-16T01:22:07;97764.41;;;10.85;42.11
31595;BME280;18200;48.726;8.892;2023-02-16T01:26:13;97755.88;;;10.83;41.79
31595;BME280;18200;48.726;8.892;2023-02-16T01:30:18;97755.69;;;11.01;42.10
31595;BME280;18200;48.726;8.892;2023-02-16T01:34:18;97751.44;;;11.00;41.59
31595;BME280;18200;48.726;8.892;2023-02-16T01:38:25;97753.59;;;10.20;42.60
31595;BME280;18200;48.726;8.892;2023-02-16T01:47:34;97743.97;;;10.72;42.64
31595;BME280;18200;48.726;8.892;2023-02-16T01:51:49;97733.69;;;10.86;42.26
31595;BME280;18200;48.726;8.892;2023-02-16T01:55:56;97744.78;;;10.73;42.64
31595;BME280;18200;48.726;8.892;2023-02-16T02:03:58;97733.31;;;11.21;40.99
31595;BME280;18200;48.726;8.892;2023-02-16T02:08:22;97736.63;;;10.81;41.40
31595;BME280;18200;48.726;8.892;2023-02-16T02:12:35;97735.75;;;11.02;40.46
31595;BME280;18200;48.726;8.892;2023-02-16T02:16:37;97736.03;;;10.43;41.37
31595;BME280;18200;48.726;8.892;2023-02-16T02:34:16;97723.81;;;10.66;41.97
31595;BME280;18200;48.726;8.892;2023-02-16T02:38:25;97722.22;;;10.65;41.25
31595;BME280;18200;48.726;8.892;2023-02-16T02:47:07;97721.59;;;10.80;40.79
31595;BME280;18200;48.726;8.892;2023-02-16T02:51:13;97717.72;;;10.90;41.70
31595;BME280;18200;48.726;8.892;2023-02-16T02:55:42;97717.44;;;10.38;42.83
31595;BME280;18200;48.726;8.892;2023-02-16T03:00:13;97709.75;;;10.81;40.74
31595;BME280;18200;48.726;8.892;2023-02-16T03:04:33;97712.16;;;10.62;41.98
31595;BME280;18200;48.726;8.892;2023-02-16T03:08:36;97709.72;;;10.16;43.22
31595;BME280;18200;48.726;8.892;2023-02-16T03:12:39;97711.75;;;10.84;42.11
31595;BME280;18200;48.726;8.892;2023-02-16T03:16:51;97706.28;;;10.93;41.77
31595;BME280;18200;48.726;8.892;2023-02-16T03:21:13;97701.03;;;11.21;41.16
31595;BME280;18200;48.726;8.892;2023-02-16T03:25:35;97699.66;;;10.90;41.49
31595;BME280;18200;48.726;8.892;2023-02-16T03:29:56;97703.66;;;10.72;40.81
31595;BME280;18200;48.726;8.892;2023-02-16T03:33:57;97710.13;;;10.59;40.88
31595;BME280;18200;48.726;8.892;2023-02-16T03:37:59;97713.97;;;10.70;40.55
31595;BME280;18200;48.726;8.892;2023-02-16T03:42:00;97705.78;;;10.34;42.17
31595;BME280;18200;48.726;8.892;2023-02-16T03:46:01;97708.41;;;9.81;43.09
31595;BME280;18200;48.726;8.892;2023-02-16T03:50:01;97708.28;;;9.98;42.62
31595;BME280;18200;48.726;8.892;2023-02-16T03:54:02;97721.16;;;10.46;41.51
31595;BME280;18200;48.726;8.892;2023-02-16T03:58:03;97717.84;;;10.28;41.43
31595;BME280;18200;48.726;8.892;2023-02-16T04:02:04;97728.88;;;9.56;42.93
31595;BME280;18200;48.726;8.892;2023-02-16T04:06:05;97725.69;;;10.33;42.59
31595;BME280;18200;48.726;8.892;2023-02-16T04:10:06;97728.50;;;10.69;42.01
31595;BME280;18200;48.726;8.892;2023-02-16T04:14:06;97724.97;;;10.77;41.12
31595;BME280;18200;48.726;8.892;2023-02-16T04:18:06;97726.34;;;10.96;41.07
31595;BME280;18200;48.726;8.892;2023-02-16T04:22:07;97727.53;;;10.41;41.96
31595;BME280;18200;48.726;8.892;2023-02-16T04:26:07;97732.78;;;10.82;41.24
31595;BME280;18200;48.726;8.892;2023-02-16T04:30:10;97725.88;;;10.81;41.58
31595;BME280;18200;48.726;8.892;2023-02-16T04:34:11;97724.97;;;10.89;40.96
31595;BME280;18200;48.726;8.892;2023-02-16T04:38:12;97721.59;;;10.92;40.61
31595;BME280;18200;48.726;8.892;2023-02-16T04:42:12;97733.13;;;10.69;41.59
31595;BME280;18200;48.726;8.892;2023-02-16T04:46:13;97728.44;;;10.45;42.82
31595;BME280;18200;48.726;8.892;2023-02-16T04:50:13;97727.38;;;10.58;40.63
31595;BME280;18200;48.726;8.892;2023-02-16T04:54:14;97735.03;;;10.48;40.83
31595;BME280;18200;48.726;8.892;2023-02-16T04:58:15;97734.06;;;10.32;41.56
31595;BME280;18200;48.726;8.892;2023-02-16T05:02:15;97739.25;;;10.16;41.40
31595;BME280;18200;48.726;8.892;2023-02-16T05:06:16;97727.28;;;10.34;41.73
31595;BME280;18200;48.726;8.892;2023-02-16T05:10:17;97729.28;;;10.37;41.48
31595;BME280;18200;48.726;8.892;2023-02-16T05:14:25;97718.78;;;10.77;41.04
31595;BME280;18200;48.726;8.892;2023-02-16T05:18:44;97730.25;;;10.53;41.27
31595;BME280;18200;48.726;8.892;2023-02-16T05:22:44;97724.34;;;10.60;41.13
31595;BME280;18200;48.726;8.892;2023-02-16T05:26:45;97728.19;;;10.38;41.31
31595;BME280;18200;48.726;8.892;2023-02-16T05:30:45;97734.88;;;9.62;41.79
31595;BME280;18200;48.726;8.892;2023-02-16T05:34:46;97736.22;;;9.09;44.45
31595;BME280;18200;48.726;8.892;2023-02-16T05:38:47;97739.22;;;9.75;43.06
31595;BME280;18200;48.726;8.892;2023-02-16T05:42:52;97726.19;;;10.06;42.07
31595;BME280;18200;48.726;8.892;2023-02-16T05:46:53;97739.72;;;10.18;42.18
31595;BME280;18200;48.726;8.892;2023-02-16T05:50:53;97743.97;;;10.19;41.72
31595;BME280;18200;48.726;8.892;2023-02-16T05:54:54;97731.81;;;10.22;41.92
31595;BME280;18200;48.726;8.892;2023-02-16T05:58:54;97741.28;;;9.98;42.63
31595;BME280;18200;48.726;8.892;2023-02-16T06:02:54;97748.59;;;10.10;42.38
31595;BME280;18200;48.726;8.892;2023-02-16T06:06:55;97752.16;;;10.43;41.83
31595;BME280;18200;48.726;8.892;2023-02-16T06:10:55;97765.38;;;10.07;41.11
31595;BME280;18200;48.726;8.892;2023-02-16T06:14:56;97770.44;;;9.79;42.00
31595;BME280;18200;48.726;8.892;2023-02-16T06:18:58;97773.44;;;9.78;42.18
31595;BME280;18200;48.726;8.892;2023-02-16T06:22:59;97768.16;;;10.19;42.47
31595;BME280;18200;48.726;8.892;2023-02-16T06:26:59;97772.59;;;10.15;41.72
31595;BME280;18200;48.726;8.892;2023-02-16T06:31:00;97782.25;;;10.07;41.29
31595;BME280;18200;48.726;8.892;2023-02-16T06:35:00;97783.47;;;9.89;41.78
31595;BME280;18200;48.726;8.892;2023-02-16T06:39:00;97777.66;;;10.08;41.98
31595;BME280;18200;48.726;8.892;2023-02-16T06:43:01;97778.34;;;10.05;41.23
31595;BME280;18200;48.726;8.892;2023-02-16T06:47:01;97783.00;;;9.87;41.12
31595;BME280;18200;48.726;8.892;2023-02-16T06:51:02;97782.44;;;10.11;41.97
31595;BME280;18200;48.726;8.892;2023-02-16T06:55:02;97796.28;;;9.55;42.77
31595;BME280;18200;48.726;8.892;2023-02-16T06:59:03;97789.31;;;9.62;42.10
31595;BME280;18200;48.726;8.892;2023-02-16T07:03:03;97794.25;;;9.81;42.19
31595;BME280;18200;48.726;8.892;2023-02-16T07:07:04;97786.56;;;10.00;41.96
31595;BME280;18200;48.726;8.892;2023-02-16T07:11:04;97788.22;;;9.84;41.94
31595;BME280;18200;48.726;8.892;2023-02-16T07:15:05;97792.84;;;10.04;42.39
31595;BME280;18200;48.726;8.892;2023-02-16T07:19:06;97795.53;;;10.04;41.83
31595;BME280;18200;48.726;8.892;2023-02-16T07:23:06;97795.19;;;9.85;42.25
31595;BME280;18200;48.726;8.892;2023-02-16T07:27:07;97786.84;;;10.48;42.24
31595;BME280;18200;48.726;8.892;2023-02-16T07:31:13;97787.00;;;10.52;40.98
31595;BME280;18200;48.726;8.892;2023-02-16T07:35:14;97792.88;;;10.25;41.94
31595;BME280;18200;48.726;8.892;2023-02-16T07:39:14;97789.72;;;10.02;42.59
31595;BME280;18200;48.726;8.892;2023-02-16T07:43:15;97793.94;;;10.32;41.79
31595;BME280;18200;48.726;8.892;2023-02-16T07:47:15;97796.88;;;10.39;41.68
31595;BME280;18200;48.726;8.892;2023-02-16T07:51:23;97789.84;;;10.67;41.80
31595;BME280;18200;48.726;8.892;2023-02-16T07:55:23;97794.63;;;10.82;41.89
31595;BME280;18200;48.726;8.892;2023-02-16T07:59:24;97801.59;;;10.96;41.60
31595;BME280;18200;48.726;8.892;2023-02-16T08:03:24;97800.97;;;10.99;41.77
31595;BME280;18200;48.726;8.892;2023-02-16T08:07:25;97801.25;;;10.97;42.37
31595;BME280;18200;48.726;8.892;2023-02-16T08:11:25;97799.91;;;11.48;41.56
31595;BME280;18200;48.726;8.892;2023-02-16T08:15:26;97808.94;;;11.76;41.02
31595;BME280;18200;48.726;8.892;2023-02-16T08:19:26;97800.63;;;11.93;41.34
31595;BME280;18200;48.726;8.892;2023-02-16T08:23:28;97803.63;;;12.04;41.38
31595;BME280;18200;48.726;8.892;2023-02-16T08:27:28;97804.63;;;12.23;41.01
31595;BME280;18200;48.726;8.892;2023-02-16T08:31:30;97805.41;;;12.64;40.71
31595;BME280;18200;48.726;8.892;2023-02-16T08:35:31;97802.34;;;12.93;40.65
31595;BME280;18200;48.726;8.892;2023-02-16T08:39:32;97798.28;;;13.42;39.81
31595;BME280;18200;48.726;8.892;2023-02-16T08:43:32;97800.47;;;13.68;39.33
31595;BME280;18200;48.726;8.892;2023-02-16T08:47:33;97803.59;;;14.01;39.30
31595;BME280;18200;48.726;8.892;2023-02-16T08:51:44;97798.31;;;14.08;38.76
31595;BME280;18200;48.726;8.892;2023-02-16T08:55:55;97789.47;;;14.61;38.66
31595;BME280;18200;48.726;8.892;2023-02-16T08:59:56;97785.34;;;15.28;37.33
31595;BME280;18200;48.726;8.892;2023-02-16T09:04:19;97785.34;;;16.00;36.08
31595;BME280;18200;48.726;8.892;2023-02-16T09:08:23;97775.63;;;16.51;34.88
31595;BME280;18200;48.726;8.892;2023-02-16T09:12:23;97776.88;;;16.90;34.43
31595;BME280;18200;48.726;8.892;2023-02-16T09:16:25;97781.50;;;16.86;34.55
31595;BME280;18200;48.726;8.892;2023-02-16T09:20:35;97773.53;;;17.88;32.95
31595;BME280;18200;48.726;8.892;2023-02-16T09:24:36;97784.75;;;17.83;32.53
31595;BME280;18200;48.726;8.892;2023-02-16T09:28:37;97787.38;;;18.27;31.84
31595;BME280;18200;48.726;8.892;2023-02-16T09:32:38;97780.75;;;19.07;31.72
31595;BME280;18200;48.726;8.892;2023-02-16T09:36:39;97775.31;;;19.21;30.75
31595;BME280;18200;48.726;8.892;2023-02-16T09:40:40;97769.94;;;19.84;30.57
31595;BME280;18200;48.726;8.892;2023-02-16T09:44:57;97768.75;;;20.06;29.94
31595;BME280;18200;48.726;8.892;2023-02-16T09:49:03;97767.09;;;20.55;29.40
31595;BME280;18200;48.726;8.892;2023-02-16T09:53:14;97768.34;;;20.33;29.67
31595;BME280;18200;48.726;8.892;2023-02-16T10:01:40;97752.16;;;21.49;28.24
31595;BME280;18200;48.726;8.892;2023-02-16T10:05:55;97750.53;;;21.59;27.85
31595;BME280;18200;48.726;8.892;2023-02-16T10:10:01;97757.41;;;21.78;27.11
31595;BME280;18200;48.726;8.892;2023-02-16T10:14:42;97759.16;;;22.39;26.70
31595;BME280;18200;48.726;8.892;2023-02-16T10:18:47;97750.00;;;22.86;25.81
31595;BME280;18200;48.726;8.892;2023-02-16T10:22:54;97757.63;;;22.72;26.36
31595;BME280;18200;48.726;8.892;2023-02-16T10:27:02;97758.88;;;22.67;26.60
31595;BME280;18200;48.726;8.892;2023-02-16T10:31:18;97747.78;;;23.35;25.75
31595;BME280;18200;48.726;8.892;2023-02-16T10:35:47;97747.63;;;22.88;26.40
31595;BME280;18200;48.726;8.892;2023-02-16T10:40:01;97740.50;;;23.74;25.20
31595;BME280;18200;48.726;8.892;2023-02-16T10:48:14;97738.66;;;24.53;24.02
31595;BME280;18200;48.726;8.892;2023-02-16T10:52:14;97736.13;;;24.62;24.14
31595;BME280;18200;48.726;8.892;2023-02-16T11:00:50;97724.75;;;25.52;23.14
31595;BME280;18200;48.726;8.892;2023-02-16T11:04:57;97727.25;;;25.46;22.91
31595;BME280;18200;48.726;8.892;2023-02-16T11:08:59;97729.03;;;25.01;23.74
31595;BME280;18200;48.726;8.892;2023-02-16T11:13:01;97721.31;;;25.64;23.27
31595;BME280;18200;48.726;8.892;2023-02-16T11:17:08;97716.91;;;25.82;22.61
31595;BME280;18200;48.726;8.892;2023-02-16T11:21:11;97710.91;;;25.55;23.19
31595;BME280;18200;48.726;8.892;2023-02-16T11:25:18;97709.69;;;24.88;23.36
31595;BME280;18200;48.726;8.892;2023-02-16T11:29:19;97702.03;;;25.31;22.88
31595;BME280;18200;48.726;8.892;2023-02-16T11:33:26;97699.47;;;24.89;23.58
31595;BME280;18200;48.726;8.892;2023-02-16T11:37:30;97699.06;;;25.42;23.18
31595;BME280;18200;48.726;8.892;2023-02-16T11:41:34;97698.72;;;24.10;24.53
31595;BME280;18200;48.726;8.892;2023-02-16T11:45:35;97690.53;;;25.01;24.47
31595;BME280;18200;48.726;8.892;2023-02-16T11:49:41;97688.97;;;24.64;24.85
31595;BME280;18200;48.726;8.892;2023-02-16T11:53:43;97683.59;;;26.22;22.98
31595;BME280;18200;48.726;8.892;2023-02-16T11:57:44;97683.81;;;26.14;23.10
31595;BME280;18200;48.726;8.892;2023-02-16T12:06:10;97678.22;;;26.72;22.10
31595;BME280;18200;48.726;8.892;2023-02-16T12:10:30;97670.94;;;26.53;22.43
31595;BME280;18200;48.726;8.892;2023-02-16T12:19:03;97650.34;;;26.00;22.82
31595;BME280;18200;48.726;8.892;2023-02-16T12:23:32;97645.22;;;24.53;24.68
31595;BME280;18200;48.726;8.892;2023-02-16T12:27:47;97644.16;;;25.35;23.43
31595;BME280;18200;48.726;8.892;2023-02-16T12:36:51;97636.00;;;25.31;23.82
31595;BME280;18200;48.726;8.892;2023-02-16T12:41:10;97616.28;;;26.89;21.39
31595;BME280;18200;48.726;8.892;2023-02-16T12:45:35;97631.34;;;24.80;24.98
31595;BME280;18200;48.726;8.892;2023-02-16T12:53:52;97625.25;;;26.52;22.12
31595;BME280;18200;48.726;8.892;2023-02-16T12:58:02;97617.69;;;25.25;23.00
31595;BME280;18200;48.726;8.892;2023-02-16T13:02:16;97613.34;;;25.72;22.82
31595;BME280;18200;48.726;8.892;2023-02-16T13:10:36;97634.47;;;24.04;24.55
31595;BME280;18200;48.726;8.892;2023-02-16T13:14:42;97621.47;;;24.27;24.55
31595;BME280;18200;48.726;8.892;2023-02-16T13:18:44;97620.44;;;25.09;23.34
31595;BME280;18200;48.726;8.892;2023-02-16T13:23:12;97612.91;;;24.41;23.43
31595;BME280;18200;48.726;8.892;2023-02-16T13:44:55;97609.84;;;24.55;23.65
31595;BME280;18200;48.726;8.892;2023-02-16T13:48:57;97616.66;;;23.92;25.23
31595;BME280;18200;48.726;8.892;2023-02-16T13:53:17;97616.66;;;25.03;22.91
31595;BME280;18200;48.726;8.892;2023-02-16T14:01:49;97623.56;;;24.39;23.91
31595;BME280;18200;48.726;8.892;2023-02-16T14:05:54;97622.97;;;24.12;24.40
31595;BME280;18200;48.726;8.892;2023-02-16T14:10:14;97624.22;;;25.47;22.48
31595;BME280;18200;48.726;8.892;2023-02-16T14:14:39;97626.97;;;24.63;23.70
31595;BME280;18200;48.726;8.892;2023-02-16T14:18:55;97621.56;;;24.04;23.69
31595;BME280;18200;48.726;8.892;2023-02-16T14:22:57;97631.31;;;26.05;22.15
31595;BME280;18200;48.726;8.892;2023-02-16T14:27:04;97627.91;;;24.56;23.71
31595;BME280;18200;48.726;8.892;2023-02-16T14:31:13;97627.44;;;25.74;22.04
31595;BME280;18200;48.726;8.892;2023-02-16T14:35:20;97627.53;;;26.82;21.54
31595;BME280;18200;48.726;8.892;2023-02-16T14:39:22;97630.69;;;26.43;20.87
31595;BME280;18200;48.726;8.892;2023-02-16T14:43:41;97629.31;;;25.49;22.01
31595;BME280;18200;48.726;8.892;2023-02-16T14:47:50;97636.91;;;25.73;21.74
31595;BME280;18200;48.726;8.892;2023-02-16T14:56:28;97632.94;;;24.22;23.27
31595;BME280;18200;48.726;8.892;2023-02-16T15:00:43;97635.28;;;24.04;23.65
31595;BME280;18200;48.726;8.892;2023-02-16T15:04:45;97635.13;;;24.11;23.73
31595;BME280;18200;48.726;8.892;2023-02-16T15:08:51;97619.41;;;24.87;22.74
31595;BME280;18200;48.726;8.892;2023-02-16T15:12:56;97615.41;;;24.16;23.97
31595;BME280;18200;48.726;8.892;2023-02-16T15:16:57;97606.78;;;22.82;24.93
31595;BME280;18200;48.726;8.892;2023-02-16T15:20:58;97597.34;;;24.71;23.14
31595;BME280;18200;48.726;8.892;2023-02-16T15:25:10;97593.63;;;25.74;21.72
31595;BME280;18200;48.726;8.892;2023-02-16T15:37:30;97608.31;;;24.90;23.44
31595;BME280;18200;48.726;8.892;2023-02-16T15:41:36;97608.47;;;25.15;22.95
31595;BME280;18200;48.726;8.892;2023-02-16T15:45:37;97612.19;;;25.25;22.59
31595;BME280;18200;48.726;8.892;2023-02-16T15:49:38;97600.75;;;24.78;23.37
31595;BME280;18200;48.726;8.892;2023-02-16T15:53:48;97596.19;;;24.16;23.71
31595;BME280;18200;48.726;8.892;2023-02-16T15:57:49;97586.56;;;24.80;23.10
31595;BME280;18200;48.726;8.892;2023-02-16T16:01:56;97590.44;;;24.82;23.24
31595;BME280;18200;48.726;8.892;2023-02-16T16:06:02;97580.38;;;24.40;23.39
31595;BME280;18200;48.726;8.892;2023-02-16T16:10:17;97588.50;;;24.63;23.36
31595;BME280;18200;48.726;8.892;2023-02-16T16:14:20;97589.34;;;24.96;22.83
31595;BME280;18200;48.726;8.892;2023-02-16T16:18:37;97591.50;;;25.04;22.83
31595;BME280;18200;48.726;8.892;2023-02-16T16:22:39;97586.22;;;25.26;22.53
31595;BME280;18200;48.726;8.892;2023-02-16T16:26:53;97588.38;;;25.51;22.08
31595;BME280;18200;48.726;8.892;2023-02-16T16:31:17;97584.75;;;25.21;22.49
31595;BME280;18200;48.726;8.892;2023-02-16T16:39:39;97588.75;;;24.52;23.60
31595;BME280;18200;48.726;8.892;2023-02-16T16:43:52;97595.63;;;24.60;23.16
31595;BME280;18200;48.726;8.892;2023-02-16T16:47:59;97596.16;;;24.72;23.43
31595;BME280;18200;48.726;8.892;2023-02-16T16:52:00;97581.56;;;24.75;23.19
31595;BME280;18200;48.726;8.892;2023-02-16T16:56:08;97587.94;;;24.88;23.33
31595;BME280;18200;48.726;8.892;2023-02-16T17:00:09;97586.56;;;24.80;23.32
31595;BME280;18200;48.726;8.892;2023-02-16T17:04:10;97592.41;;;24.82;23.61
31595;BME280;18200;48.726;8.892;2023-02-16T17:08:11;97603.91;;;23.82;26.03
31595;BME280;18200;48.726;8.892;2023-02-16T17:12:11;97597.56;;;24.08;24.74
31595;BME280;18200;48.726;8.892;2023-02-16T17:16:15;97607.53;;;24.18;24.63
31595;BME280;18200;48.726;8.892;2023-02-16T17:20:18;97604.84;;;23.95;25.40
31595;BME280;18200;48.726;8.892;2023-02-16T17:24:19;97606.75;;;23.09;26.51
31595;BME280;18200;48.726;8.892;2023-02-16T17:28:22;97606.09;;;23.01;27.11
31595;BME280;18200;48.726;8.892;2023-02-16T17:32:24;97611.94;;;22.50;27.60
31595;BME280;18200;48.726;8.892;2023-02-16T17:36:26;97612.00;;;22.73;27.16
31595;BME280;18200;48.726;8.892;2023-02-16T17:40:29;97604.44;;;23.31;26.61
31595;BME280;18200;48.726;8.892;2023-02-16T17:44:35;97621.34;;;23.02;27.43
31595;BME280;18200;48.726;8.892;2023-02-16T17:48:37;97631.25;;;23.20;27.06
31595;BME280;18200;48.726;8.892;2023-02-16T17:52:37;97628.88;;;23.22;27.16
31595;BME280;18200;48.726;8.892;2023-02-16T17:56:39;97630.44;;;23.23;27.00
31595;BME280;18200;48.726;8.892;2023-02-16T18:00:41;97636.56;;;23.30;26.77
31595;BME280;18200;48.726;8.892;2023-02-16T18:04:42;97636.75;;;22.66;28.47
31595;BME280;18200;48.726;8.892;2023-02-16T18:08:43;97632.06;;;22.36;28.38
31595;BME280;18200;48.726;8.892;2023-02-16T18:12:43;97627.13;;;22.85;27.61
31595;BME280;18200;48.726;8.892;2023-02-16T18:16:49;97635.28;;;22.28;28.07
31595;BME280;18200;48.726;8.892;2023-02-16T18:20:50;97629.28;;;22.40;27.97
31595;BME280;18200;48.726;8.892;2023-02-16T18:24:50;97636.44;;;22.87;27.63
31595;BME280;18200;48.726;8.892;2023-02-16T18:28:54;97628.56;;;22.93;27.04
31595;BME280;18200;48.726;8.892;2023-02-16T18:32:55;97641.03;;;22.37;29.35
31595;BME280;18200;48.726;8.892;2023-02-16T18:36:55;97643.22;;;20.93;31.88
31595;BME280;18200;48.726;8.892;2023-02-16T18:40:56;97641.56;;;21.06;31.32
31595;BME280;18200;48.726;8.892;2023-02-16T18:44:56;97643.09;;;21.96;29.16
31595;BME280;18200;48.726;8.892;2023-02-16T18:48:57;97646.47;;;20.70;31.44
31595;BME280;18200;48.726;8.892;2023-02-16T18:52:57;97644.03;;;21.41;30.60
31595;BME280;18200;48.726;8.892;2023-02-16T18:56:58;97643.22;;;21.85;29.57
31595;BME280;18200;48.726;8.892;2023-02-16T19:00:58;97642.66;;;22.01;28.81
31595;BME280;18200;48.726;8.892;2023-02-16T19:04:59;97640.59;;;22.12;28.41
31595;BME280;18200;48.726;8.892;2023-02-16T19:08:59;97640.09;;;21.87;28.64
31595;BME280;18200;48.726;8.892;2023-02-16T19:13:00;97652.03;;;21.62;29.59
31595;BME280;18200;48.726;8.892;2023-02-16T19:17:00;97649.81;;;22.25;27.75
31595;BME280;18200;48.726;8.892;2023-02-16T19:21:04;97647.13;;;21.81;27.28
31595;BME280;18200;48.726;8.892;2023-02-16T19:25:05;97649.25;;;22.37;26.99
31595;BME280;18200;48.726;8.892;2023-02-16T19:29:09;97640.84;;;22.51;26.83
31595;BME280;18200;48.726;8.892;2023-02-16T19:33:09;97640.03;;;22.54;26.71
31595;BME280;18200;48.726;8.892;2023-02-16T19:37:10;97637.75;;;22.79;26.19
31595;BME280;18200;48.726;8.892;2023-02-16T19:41:13;97641.91;;;22.91;26.40
31595;BME280;18200;48.726;8.892;2023-02-16T19:45:14;97636.66;;;22.73;26.64
31595;BME280;18200;48.726;8.892;2023-02-16T19:49:14;97644.47;;;22.75;26.68
31595;BME280;18200;48.726;8.892;2023-02-16T19:53:16;97633.94;;;22.73;26.53
31595;BME280;18200;48.726;8.892;2023-02-16T19:57:16;97641.94;;;22.87;26.37
31595;BME280;18200;48.726;8.892;2023-02-16T20:01:22;97659.63;;;21.85;29.27
31595;BME280;18200;48.726;8.892;2023-02-16T20:05:23;97655.75;;;22.50;27.29
31595;BME280;18200;48.726;8.892;2023-02-16T20:09:23;97654.03;;;22.63;26.59
31595;BME280;18200;48.726;8.892;2023-02-16T20:13:24;97642.28;;;22.89;27.10
31595;BME280;18200;48.726;8.892;2023-02-16T20:17:25;97640.75;;;22.58;28.17
31595;BME280;18200;48.726;8.892;2023-02-16T20:21:28;97643.72;;;22.74;27.08
31595;BME280;18200;48.726;8.892;2023-02-16T20:25:28;97652.94;;;22.23;27.54
31595;BME280;18200;48.726;8.892;2023-02-16T20:29:29;97647.06;;;22.25;28.67
31595;BME280;18200;48.726;8.892;2023-02-16T20:33:30;97645.09;;;22.59;27.74
31595;BME280;18200;48.726;8.892;2023-02-16T20:37:30;97645.94;;;22.83;26.94
31595;BME280;18200;48.726;8.892;2023-02-16T20:41:30;97650.00;;;22.71;26.72
31595;BME280;18200;48.726;8.892;2023-02-16T20:45:31;97645.34;;;22.68;27.47
31595;BME280;18200;48.726;8.892;2023-02-16T20:49:35;97648.50;;;22.67;27.37
31595;BME280;18200;48.726;8.892;2023-02-16T20:53:35;97652.16;;;22.83;26.81
31595;BME280;18200;48.726;8.892;2023-02-16T20:57:36;97652.56;;;22.55;27.25
31595;BME280;18200;48.726;8.892;2023-02-16T21:01:40;97649.47;;;21.86;29.35
31595;BME280;18200;48.726;8.892;2023-02-16T21:05:42;97643.19;;;22.53;27.57
31595;BME280;18200;48.726;8.892;2023-02-16T21:09:43;97640.31;;;22.33;28.25
31595;BME280;18200;48.726;8.892;2023-02-16T21:13:44;97642.94;;;22.10;28.07
31595;BME280;18200;48.726;8.892;2023-02-16T21:17:44;97634.13;;;22.29;28.22
31595;BME280;18200;48.726;8.892;2023-02-16T21:21:45;97642.59;;;22.08;28.45
31595;BME280;18200;48.726;8.892;2023-02-16T21:25:45;97634.28;;;22.45;27.68
31595;BME280;18200;48.726;8.892;2023-02-16T21:29:46;97640.44;;;22.22;27.73
31595;BME280;18200;48.726;8.892;2023-02-16T21:33:47;97641.63;;;21.88;28.11
31595;BME280;18200;48.726;8.892;2023-02-16T21:37:47;97638.88;;;22.25;27.44
31595;BME280;18200;48.726;8.892;2023-02-16T21:41:47;97633.75;;;22.57;27.51
31595;BME280;18200;48.726;8.892;2023-02-16T21:45:57;97636.56;;;22.50;28.05
31595;BME280;18200;48.726;8.892;2023-02-16T21:49:58;97630.41;;;22.12;27.94
31595;BME280;18200;48.726;8.892;2023-02-16T21:53:59;97630.19;;;22.30;27.71
31595;BME280;18200;48.726;8.892;2023-02-16T21:57:59;97621.53;;;22.65;27.22
31595;BME280;18200;48.726;8.892;2023-02-16T22:02:00;97619.06;;;22.44;27.85
31595;BME280;18200;48.726;8.892;2023-02-16T22:06:01;97617.38;;;21.90;28.81
31595;BME280;18200;48.726;8.892;2023-02-16T22:10:02;97610.38;;;22.49;28.14
31595;BME280;18200;48.726;8.892;2023-02-16T22:14:03;97607.25;;;22.47;28.50
31595;BME280;18200;48.726;8.892;2023-02-16T22:18:04;97612.16;;;22.32;28.50
31595;BME280;18200;48.726;8.892;2023-02-16T22:22:05;97613.13;;;22.19;28.30
31595;BME280;18200;48.726;8.892;2023-02-16T22:26:06;97609.28;;;22.13;28.53
31595;BME280;18200;48.726;8.892;2023-02-16T22:30:08;97613.28;;;22.05;29.16
31595;BME280;18200;48.726;8.892;2023-02-16T22:34:12;97613.84;;;21.93;29.26
31595;BME280;18200;48.726;8.892;2023-02-16T22:38:13;97615.47;;;22.17;28.83
31595;BME280;18200;48.726;8.892;2023-02-16T22:42:14;97611.38;;;22.02;29.36
31595;BME280;18200;48.726;8.892;2023-02-16T22:46:15;97606.53;;;21.83;29.52
31595;BME280;18200;48.726;8.892;2023-02-16T22:50:16;97602.75;;;21.66;29.23
31595;BME280;18200;48.726;8.892;2023-02-16T22:54:16;97604.16;;;21.81;29.71
31595;BME280;18200;48.726;8.892;2023-02-16T22:58:17;97603.59;;;21.59;29.83
31595;BME280;18200;48.726;8.892;2023-02-16T23:02:17;97600.88;;;21.59;28.83
31595;BME280;18200;48.726;8.892;2023-02-16T23:06:25;97609.06;;;21.59;29.48
31595;BME280;18200;48.726;8.892;2023-02-16T23:10:26;97610.41;;;21.44;29.68
31595;BME280;18200;48.726;8.892;2023-02-16T23:14:26;97605.50;;;21.25;29.88